sensor_id;sensor_type;location;lat;lon;timestamp;P1;durP1;ratioP1;P2;durP2;ratioP2
30743;SDS011;17486;46.738;7.622;2022-11-20T00:00:22;5.97;;;4.15;;
30743;SDS011;17486;46.738;7.622;2022-11-20T00:02:48;6.78;;;4.88;;
30743;SDS011;17486;46.738;7.622;2022-11-20T00:05:13;5.53;;;4.75;;
30743;SDS011;17486;46.738;7.622;2022-11-20T00:07:38;7.22;;;4.40;;
30743;SDS011;17486;46.738;7.622;2022-11-20T00:10:04;5.78;;;4.20;;
30743;SDS011;17486;46.738;7.622;2022-11-20T00:12:30;4.18;;;3.30;;
30743;SDS011;17486;46.738;7.622;2022-11-20T00:14:55;4.28;;;3.10;;
30743;SDS011;17486;46.738;7.622;2022-11-20T00:17:20;3.38;;;2.47;;
30743;SDS011;17486;46.738;7.622;2022-11-20T00:19:46;3.58;;;2.65;;
30743;SDS011;17486;46.738;7.622;2022-11-20T00:22:11;3.13;;;2.35;;
30743;SDS011;17486;46.738;7.622;2022-11-20T00:24:36;3.70;;;2.30;;
30743;SDS011;17486;46.738;7.622;2022-11-20T00:27:02;3.92;;;2.78;;
30743;SDS011;17486;46.738;7.622;2022-11-20T00:29:27;3.22;;;2.38;;
30743;SDS011;17486;46.738;7.622;2022-11-20T00:31:53;3.63;;;2.50;;
30743;SDS011;17486;46.738;7.622;2022-11-20T00:34:18;4.72;;;2.67;;
30743;SDS011;17486;46.738;7.622;2022-11-20T00:36:43;3.38;;;2.35;;
30743;SDS011;17486;46.738;7.622;2022-11-20T00:39:09;3.63;;;2.35;;
30743;SDS011;17486;46.738;7.622;2022-11-20T00:41:34;3.35;;;2.58;;
30743;SDS011;17486;46.738;7.622;2022-11-20T00:43:59;3.65;;;2.58;;
30743;SDS011;17486;46.738;7.622;2022-11-20T00:46:25;4.40;;;2.53;;
30743;SDS011;17486;46.738;7.622;2022-11-20T00:48:52;3.85;;;2.15;;
30743;SDS011;17486;46.738;7.622;2022-11-20T00:51:19;4.50;;;2.55;;
30743;SDS011;17486;46.738;7.622;2022-11-20T00:53:46;2.97;;;2.00;;
30743;SDS011;17486;46.738;7.622;2022-11-20T00:56:13;2.28;;;2.00;;
30743;SDS011;17486;46.738;7.622;2022-11-20T00:58:40;3.60;;;2.13;;
30743;SDS011;17486;46.738;7.622;2022-11-20T01:01:12;2.42;;;2.05;;
30743;SDS011;17486;46.738;7.622;2022-11-20T01:03:49;3.67;;;2.20;;
30743;SDS011;17486;46.738;7.622;2022-11-20T01:06:16;4.85;;;2.70;;
30743;SDS011;17486;46.738;7.622;2022-11-20T01:08:44;2.58;;;2.10;;
30743;SDS011;17486;46.738;7.622;2022-11-20T01:11:12;2.83;;;2.17;;
30743;SDS011;17486;46.738;7.622;2022-11-20T01:13:43;3.13;;;2.33;;
30743;SDS011;17486;46.738;7.622;2022-11-20T01:16:14;3.88;;;2.22;;
30743;SDS011;17486;46.738;7.622;2022-11-20T01:18:42;4.28;;;2.58;;
30743;SDS011;17486;46.738;7.622;2022-11-20T01:21:12;4.15;;;3.00;;
30743;SDS011;17486;46.738;7.622;2022-11-20T01:23:42;4.00;;;2.58;;
30743;SDS011;17486;46.738;7.622;2022-11-20T01:26:12;3.42;;;2.53;;
30743;SDS011;17486;46.738;7.622;2022-11-20T01:28:39;3.75;;;2.70;;
30743;SDS011;17486;46.738;7.622;2022-11-20T01:31:19;3.25;;;2.53;;
30743;SDS011;17486;46.738;7.622;2022-11-20T01:33:49;4.50;;;3.10;;
30743;SDS011;17486;46.738;7.622;2022-11-20T01:36:17;3.63;;;2.97;;
30743;SDS011;17486;46.738;7.622;2022-11-20T01:38:43;3.88;;;2.90;;
30743;SDS011;17486;46.738;7.622;2022-11-20T01:41:09;5.38;;;3.40;;
30743;SDS011;17486;46.738;7.622;2022-11-20T01:43:36;5.25;;;2.60;;
30743;SDS011;17486;46.738;7.622;2022-11-20T01:51:13;7.32;;;3.58;;
30743;SDS011;17486;46.738;7.622;2022-11-20T01:53:44;5.40;;;3.22;;
30743;SDS011;17486;46.738;7.622;2022-11-20T01:56:11;4.32;;;3.22;;
30743;SDS011;17486;46.738;7.622;2022-11-20T01:58:40;4.00;;;2.83;;
30743;SDS011;17486;46.738;7.622;2022-11-20T02:01:10;5.05;;;2.83;;
30743;SDS011;17486;46.738;7.622;2022-11-20T02:03:37;4.68;;;2.70;;
30743;SDS011;17486;46.738;7.622;2022-11-20T02:06:14;3.70;;;2.88;;
30743;SDS011;17486;46.738;7.622;2022-11-20T02:08:47;4.40;;;2.92;;
30743;SDS011;17486;46.738;7.622;2022-11-20T02:11:12;4.28;;;2.97;;
30743;SDS011;17486;46.738;7.622;2022-11-20T02:13:38;3.58;;;2.90;;
30743;SDS011;17486;46.738;7.622;2022-11-20T02:16:14;4.30;;;3.25;;
30743;SDS011;17486;46.738;7.622;2022-11-20T02:18:44;3.75;;;2.80;;
30743;SDS011;17486;46.738;7.622;2022-11-20T02:26:33;3.92;;;2.60;;
30743;SDS011;17486;46.738;7.622;2022-11-20T02:29:03;6.28;;;3.50;;
30743;SDS011;17486;46.738;7.622;2022-11-20T02:31:28;5.40;;;2.92;;
30743;SDS011;17486;46.738;7.622;2022-11-20T02:33:58;3.55;;;2.95;;
30743;SDS011;17486;46.738;7.622;2022-11-20T02:36:24;4.28;;;2.70;;
30743;SDS011;17486;46.738;7.622;2022-11-20T02:38:52;3.33;;;2.70;;
30743;SDS011;17486;46.738;7.622;2022-11-20T02:41:18;4.03;;;2.85;;
30743;SDS011;17486;46.738;7.622;2022-11-20T02:43:43;2.65;;;2.33;;
30743;SDS011;17486;46.738;7.622;2022-11-20T02:46:09;5.10;;;2.95;;
30743;SDS011;17486;46.738;7.622;2022-11-20T02:48:34;5.53;;;3.08;;
30743;SDS011;17486;46.738;7.622;2022-11-20T02:51:00;3.50;;;2.40;;
30743;SDS011;17486;46.738;7.622;2022-11-20T02:53:25;5.45;;;2.92;;
30743;SDS011;17486;46.738;7.622;2022-11-20T02:55:51;3.53;;;2.30;;
30743;SDS011;17486;46.738;7.622;2022-11-20T02:58:16;4.65;;;2.72;;
30743;SDS011;17486;46.738;7.622;2022-11-20T03:00:42;3.60;;;2.40;;
30743;SDS011;17486;46.738;7.622;2022-11-20T03:03:07;3.65;;;2.65;;
30743;SDS011;17486;46.738;7.622;2022-11-20T03:05:32;3.30;;;2.30;;
30743;SDS011;17486;46.738;7.622;2022-11-20T03:07:58;3.20;;;2.13;;
30743;SDS011;17486;46.738;7.622;2022-11-20T03:10:24;3.92;;;2.00;;
30743;SDS011;17486;46.738;7.622;2022-11-20T03:12:55;2.58;;;1.95;;
30743;SDS011;17486;46.738;7.622;2022-11-20T03:15:22;5.00;;;2.22;;
30743;SDS011;17486;46.738;7.622;2022-11-20T03:17:48;4.25;;;2.15;;
30743;SDS011;17486;46.738;7.622;2022-11-20T03:20:13;4.15;;;2.20;;
30743;SDS011;17486;46.738;7.622;2022-11-20T03:22:39;3.72;;;2.05;;
30743;SDS011;17486;46.738;7.622;2022-11-20T03:25:05;2.50;;;2.03;;
30743;SDS011;17486;46.738;7.622;2022-11-20T03:27:34;3.03;;;2.40;;
30743;SDS011;17486;46.738;7.622;2022-11-20T03:29:59;4.55;;;1.90;;
30743;SDS011;17486;46.738;7.622;2022-11-20T03:32:25;2.35;;;2.00;;
30743;SDS011;17486;46.738;7.622;2022-11-20T03:34:51;2.88;;;2.05;;
30743;SDS011;17486;46.738;7.622;2022-11-20T03:37:16;2.35;;;1.88;;
30743;SDS011;17486;46.738;7.622;2022-11-20T03:39:41;2.75;;;2.03;;
30743;SDS011;17486;46.738;7.622;2022-11-20T03:42:07;2.20;;;1.90;;
30743;SDS011;17486;46.738;7.622;2022-11-20T03:44:53;3.03;;;2.20;;
30743;SDS011;17486;46.738;7.622;2022-11-20T03:47:19;2.92;;;2.13;;
30743;SDS011;17486;46.738;7.622;2022-11-20T03:49:44;4.03;;;2.53;;
30743;SDS011;17486;46.738;7.622;2022-11-20T03:52:09;4.18;;;2.28;;
30743;SDS011;17486;46.738;7.622;2022-11-20T03:54:35;4.97;;;2.50;;
30743;SDS011;17486;46.738;7.622;2022-11-20T03:57:00;3.72;;;2.47;;
30743;SDS011;17486;46.738;7.622;2022-11-20T03:59:25;3.13;;;2.08;;
30743;SDS011;17486;46.738;7.622;2022-11-20T04:01:51;2.42;;;2.10;;
30743;SDS011;17486;46.738;7.622;2022-11-20T04:04:16;2.53;;;1.70;;
30743;SDS011;17486;46.738;7.622;2022-11-20T04:06:42;4.35;;;2.00;;
30743;SDS011;17486;46.738;7.622;2022-11-20T04:09:07;3.00;;;1.98;;
30743;SDS011;17486;46.738;7.622;2022-11-20T04:11:33;2.63;;;1.70;;
30743;SDS011;17486;46.738;7.622;2022-11-20T04:14:02;4.53;;;2.22;;
30743;SDS011;17486;46.738;7.622;2022-11-20T04:16:32;3.17;;;1.95;;
30743;SDS011;17486;46.738;7.622;2022-11-20T04:19:00;2.72;;;2.08;;
30743;SDS011;17486;46.738;7.622;2022-11-20T04:21:27;3.30;;;2.45;;
30743;SDS011;17486;46.738;7.622;2022-11-20T04:23:53;1.90;;;1.70;;
30743;SDS011;17486;46.738;7.622;2022-11-20T04:26:19;3.72;;;1.92;;
30743;SDS011;17486;46.738;7.622;2022-11-20T04:28:46;2.33;;;1.80;;
30743;SDS011;17486;46.738;7.622;2022-11-20T04:31:13;1.80;;;1.70;;
30743;SDS011;17486;46.738;7.622;2022-11-20T04:33:40;4.68;;;2.35;;
30743;SDS011;17486;46.738;7.622;2022-11-20T04:36:12;3.45;;;2.83;;
30743;SDS011;17486;46.738;7.622;2022-11-20T04:38:40;4.93;;;2.80;;
30743;SDS011;17486;46.738;7.622;2022-11-20T04:41:06;1.98;;;1.85;;
30743;SDS011;17486;46.738;7.622;2022-11-20T04:43:33;2.70;;;2.42;;
30743;SDS011;17486;46.738;7.622;2022-11-20T04:45:59;3.42;;;3.13;;
30743;SDS011;17486;46.738;7.622;2022-11-20T04:48:26;3.90;;;2.80;;
30743;SDS011;17486;46.738;7.622;2022-11-20T04:50:52;2.63;;;2.42;;
30743;SDS011;17486;46.738;7.622;2022-11-20T04:53:18;3.88;;;1.98;;
30743;SDS011;17486;46.738;7.622;2022-11-20T04:55:44;4.05;;;3.00;;
30743;SDS011;17486;46.738;7.622;2022-11-20T04:58:10;3.20;;;2.90;;
30743;SDS011;17486;46.738;7.622;2022-11-20T05:00:35;3.17;;;2.70;;
30743;SDS011;17486;46.738;7.622;2022-11-20T05:03:01;3.67;;;1.95;;
30743;SDS011;17486;46.738;7.622;2022-11-20T05:05:26;2.53;;;2.03;;
30743;SDS011;17486;46.738;7.622;2022-11-20T05:07:52;1.65;;;1.42;;
30743;SDS011;17486;46.738;7.622;2022-11-20T05:10:17;2.70;;;1.70;;
30743;SDS011;17486;46.738;7.622;2022-11-20T05:12:43;2.08;;;1.48;;
30743;SDS011;17486;46.738;7.622;2022-11-20T05:15:08;6.65;;;2.17;;
30743;SDS011;17486;46.738;7.622;2022-11-20T05:17:34;2.42;;;1.80;;
30743;SDS011;17486;46.738;7.622;2022-11-20T05:19:59;2.50;;;1.92;;
30743;SDS011;17486;46.738;7.622;2022-11-20T05:22:25;4.15;;;1.60;;
30743;SDS011;17486;46.738;7.622;2022-11-20T05:24:50;2.75;;;1.92;;
30743;SDS011;17486;46.738;7.622;2022-11-20T05:27:16;3.38;;;1.88;;
30743;SDS011;17486;46.738;7.622;2022-11-20T05:29:41;1.75;;;1.50;;
30743;SDS011;17486;46.738;7.622;2022-11-20T05:32:07;3.85;;;1.90;;
30743;SDS011;17486;46.738;7.622;2022-11-20T05:34:34;3.22;;;2.00;;
30743;SDS011;17486;46.738;7.622;2022-11-20T05:37:00;3.47;;;2.10;;
30743;SDS011;17486;46.738;7.622;2022-11-20T05:39:26;5.07;;;2.10;;
30743;SDS011;17486;46.738;7.622;2022-11-20T05:41:51;2.53;;;2.08;;
30743;SDS011;17486;46.738;7.622;2022-11-20T05:44:36;2.80;;;2.03;;
30743;SDS011;17486;46.738;7.622;2022-11-20T05:47:02;3.78;;;2.15;;
30743;SDS011;17486;46.738;7.622;2022-11-20T05:49:27;2.75;;;1.55;;
30743;SDS011;17486;46.738;7.622;2022-11-20T05:51:52;3.97;;;2.05;;
30743;SDS011;17486;46.738;7.622;2022-11-20T05:54:18;2.92;;;1.70;;
30743;SDS011;17486;46.738;7.622;2022-11-20T05:56:43;2.92;;;2.13;;
30743;SDS011;17486;46.738;7.622;2022-11-20T05:59:08;4.53;;;1.80;;
30743;SDS011;17486;46.738;7.622;2022-11-20T06:01:34;2.20;;;1.63;;
30743;SDS011;17486;46.738;7.622;2022-11-20T06:04:01;3.33;;;1.92;;
30743;SDS011;17486;46.738;7.622;2022-11-20T06:06:26;3.15;;;1.90;;
30743;SDS011;17486;46.738;7.622;2022-11-20T06:08:52;2.20;;;1.58;;
30743;SDS011;17486;46.738;7.622;2022-11-20T06:11:18;3.03;;;1.65;;
30743;SDS011;17486;46.738;7.622;2022-11-20T06:13:44;2.40;;;1.95;;
30743;SDS011;17486;46.738;7.622;2022-11-20T06:16:10;2.75;;;1.80;;
30743;SDS011;17486;46.738;7.622;2022-11-20T06:18:37;2.10;;;1.90;;
30743;SDS011;17486;46.738;7.622;2022-11-20T06:21:07;3.38;;;1.65;;
30743;SDS011;17486;46.738;7.622;2022-11-20T06:23:38;3.92;;;2.20;;
30743;SDS011;17486;46.738;7.622;2022-11-20T06:26:04;2.13;;;1.92;;
30743;SDS011;17486;46.738;7.622;2022-11-20T06:28:31;2.30;;;1.63;;
30743;SDS011;17486;46.738;7.622;2022-11-20T06:30:57;2.55;;;1.77;;
30743;SDS011;17486;46.738;7.622;2022-11-20T06:33:23;2.55;;;2.00;;
30743;SDS011;17486;46.738;7.622;2022-11-20T06:35:48;1.67;;;1.45;;
30743;SDS011;17486;46.738;7.622;2022-11-20T06:38:13;4.28;;;2.03;;
30743;SDS011;17486;46.738;7.622;2022-11-20T06:40:39;2.42;;;1.85;;
30743;SDS011;17486;46.738;7.622;2022-11-20T06:43:09;3.05;;;1.70;;
30743;SDS011;17486;46.738;7.622;2022-11-20T06:45:35;3.85;;;1.85;;
30743;SDS011;17486;46.738;7.622;2022-11-20T06:48:01;3.30;;;1.80;;
30743;SDS011;17486;46.738;7.622;2022-11-20T06:50:26;2.90;;;1.90;;
30743;SDS011;17486;46.738;7.622;2022-11-20T06:52:51;2.28;;;1.83;;
30743;SDS011;17486;46.738;7.622;2022-11-20T06:55:17;2.08;;;1.48;;
30743;SDS011;17486;46.738;7.622;2022-11-20T06:57:42;4.25;;;2.00;;
30743;SDS011;17486;46.738;7.622;2022-11-20T07:00:07;2.55;;;1.70;;
30743;SDS011;17486;46.738;7.622;2022-11-20T07:02:33;3.10;;;2.10;;
30743;SDS011;17486;46.738;7.622;2022-11-20T07:04:59;2.92;;;1.88;;
30743;SDS011;17486;46.738;7.622;2022-11-20T07:07:24;4.85;;;1.90;;
30743;SDS011;17486;46.738;7.622;2022-11-20T07:09:50;2.10;;;1.73;;
30743;SDS011;17486;46.738;7.622;2022-11-20T07:12:15;5.03;;;3.83;;
30743;SDS011;17486;46.738;7.622;2022-11-20T07:14:41;11.05;;;8.50;;
30743;SDS011;17486;46.738;7.622;2022-11-20T07:17:06;15.23;;;9.77;;
30743;SDS011;17486;46.738;7.622;2022-11-20T07:19:31;13.35;;;9.15;;
30743;SDS011;17486;46.738;7.622;2022-11-20T07:21:57;9.40;;;7.20;;
30743;SDS011;17486;46.738;7.622;2022-11-20T07:24:22;8.55;;;6.15;;
30743;SDS011;17486;46.738;7.622;2022-11-20T07:26:47;9.73;;;5.18;;
30743;SDS011;17486;46.738;7.622;2022-11-20T07:29:14;9.60;;;4.95;;
30743;SDS011;17486;46.738;7.622;2022-11-20T07:31:40;7.45;;;4.60;;
30743;SDS011;17486;46.738;7.622;2022-11-20T07:34:06;5.28;;;4.18;;
30743;SDS011;17486;46.738;7.622;2022-11-20T07:36:31;5.35;;;3.70;;
30743;SDS011;17486;46.738;7.622;2022-11-20T07:38:57;4.63;;;3.00;;
30743;SDS011;17486;46.738;7.622;2022-11-20T07:41:22;3.50;;;2.63;;
30743;SDS011;17486;46.738;7.622;2022-11-20T07:43:47;2.67;;;2.20;;
30743;SDS011;17486;46.738;7.622;2022-11-20T07:46:13;3.45;;;2.33;;
30743;SDS011;17486;46.738;7.622;2022-11-20T07:48:38;2.63;;;2.30;;
30743;SDS011;17486;46.738;7.622;2022-11-20T07:51:04;6.18;;;3.25;;
30743;SDS011;17486;46.738;7.622;2022-11-20T07:53:29;6.50;;;4.10;;
30743;SDS011;17486;46.738;7.622;2022-11-20T07:55:55;6.45;;;4.18;;
30743;SDS011;17486;46.738;7.622;2022-11-20T07:58:23;7.10;;;4.47;;
30743;SDS011;17486;46.738;7.622;2022-11-20T08:00:49;4.75;;;3.35;;
30743;SDS011;17486;46.738;7.622;2022-11-20T08:03:14;6.97;;;3.40;;
30743;SDS011;17486;46.738;7.622;2022-11-20T08:05:40;7.45;;;3.35;;
30743;SDS011;17486;46.738;7.622;2022-11-20T08:08:05;5.68;;;3.55;;
30743;SDS011;17486;46.738;7.622;2022-11-20T08:10:32;8.30;;;3.65;;
30743;SDS011;17486;46.738;7.622;2022-11-20T08:12:57;6.10;;;3.80;;
30743;SDS011;17486;46.738;7.622;2022-11-20T08:15:41;7.40;;;3.50;;
30743;SDS011;17486;46.738;7.622;2022-11-20T08:18:07;3.83;;;2.60;;
30743;SDS011;17486;46.738;7.622;2022-11-20T08:20:36;3.88;;;2.70;;
30743;SDS011;17486;46.738;7.622;2022-11-20T08:23:02;2.72;;;2.00;;
30743;SDS011;17486;46.738;7.622;2022-11-20T08:25:30;3.28;;;2.30;;
30743;SDS011;17486;46.738;7.622;2022-11-20T08:27:57;2.40;;;2.00;;
30743;SDS011;17486;46.738;7.622;2022-11-20T08:30:23;3.45;;;2.47;;
30743;SDS011;17486;46.738;7.622;2022-11-20T08:32:48;3.72;;;2.70;;
30743;SDS011;17486;46.738;7.622;2022-11-20T08:35:14;3.08;;;2.30;;
30743;SDS011;17486;46.738;7.622;2022-11-20T08:37:40;2.85;;;2.55;;
30743;SDS011;17486;46.738;7.622;2022-11-20T08:40:07;3.92;;;2.25;;
30743;SDS011;17486;46.738;7.622;2022-11-20T08:42:36;3.83;;;2.13;;
30743;SDS011;17486;46.738;7.622;2022-11-20T08:45:01;4.15;;;2.10;;
30743;SDS011;17486;46.738;7.622;2022-11-20T08:47:27;3.30;;;2.55;;
30743;SDS011;17486;46.738;7.622;2022-11-20T08:49:52;2.90;;;2.22;;
30743;SDS011;17486;46.738;7.622;2022-11-20T08:52:18;3.05;;;2.35;;
30743;SDS011;17486;46.738;7.622;2022-11-20T08:54:43;2.88;;;2.15;;
30743;SDS011;17486;46.738;7.622;2022-11-20T08:57:09;3.03;;;2.00;;
30743;SDS011;17486;46.738;7.622;2022-11-20T08:59:34;3.35;;;2.05;;
30743;SDS011;17486;46.738;7.622;2022-11-20T09:01:59;3.13;;;2.00;;
30743;SDS011;17486;46.738;7.622;2022-11-20T09:04:25;3.53;;;2.10;;
30743;SDS011;17486;46.738;7.622;2022-11-20T09:06:50;1.85;;;1.75;;
30743;SDS011;17486;46.738;7.622;2022-11-20T09:09:16;1.95;;;1.60;;
30743;SDS011;17486;46.738;7.622;2022-11-20T09:11:43;4.43;;;1.85;;
30743;SDS011;17486;46.738;7.622;2022-11-20T09:14:08;2.60;;;1.55;;
30743;SDS011;17486;46.738;7.622;2022-11-20T09:16:34;2.58;;;1.92;;
30743;SDS011;17486;46.738;7.622;2022-11-20T09:18:59;2.90;;;1.95;;
30743;SDS011;17486;46.738;7.622;2022-11-20T09:21:25;3.00;;;1.70;;
30743;SDS011;17486;46.738;7.622;2022-11-20T09:23:50;2.35;;;1.70;;
30743;SDS011;17486;46.738;7.622;2022-11-20T09:26:15;2.45;;;1.50;;
30743;SDS011;17486;46.738;7.622;2022-11-20T09:28:41;3.47;;;1.85;;
30743;SDS011;17486;46.738;7.622;2022-11-20T09:31:07;3.80;;;1.95;;
30743;SDS011;17486;46.738;7.622;2022-11-20T09:33:34;2.60;;;2.10;;
30743;SDS011;17486;46.738;7.622;2022-11-20T09:36:00;4.80;;;2.00;;
30743;SDS011;17486;46.738;7.622;2022-11-20T09:38:25;3.75;;;2.50;;
30743;SDS011;17486;46.738;7.622;2022-11-20T09:41:03;3.45;;;2.42;;
30743;SDS011;17486;46.738;7.622;2022-11-20T09:46:17;3.40;;;2.42;;
30743;SDS011;17486;46.738;7.622;2022-11-20T09:51:53;3.67;;;2.03;;
30743;SDS011;17486;46.738;7.622;2022-11-20T09:54:30;2.15;;;1.88;;
30743;SDS011;17486;46.738;7.622;2022-11-20T09:57:05;2.60;;;1.80;;
30743;SDS011;17486;46.738;7.622;2022-11-20T09:59:41;3.05;;;1.73;;
30743;SDS011;17486;46.738;7.622;2022-11-20T10:02:19;4.05;;;1.85;;
30743;SDS011;17486;46.738;7.622;2022-11-20T10:04:51;2.33;;;1.80;;
30743;SDS011;17486;46.738;7.622;2022-11-20T10:07:24;4.80;;;2.10;;
30743;SDS011;17486;46.738;7.622;2022-11-20T10:09:57;3.15;;;1.55;;
30743;SDS011;17486;46.738;7.622;2022-11-20T10:28:51;3.60;;;2.05;;
30743;SDS011;17486;46.738;7.622;2022-11-20T10:31:25;3.40;;;2.03;;
30743;SDS011;17486;46.738;7.622;2022-11-20T10:33:57;1.67;;;1.52;;
30743;SDS011;17486;46.738;7.622;2022-11-20T10:36:28;2.05;;;1.70;;
30743;SDS011;17486;46.738;7.622;2022-11-20T10:39:00;2.47;;;1.95;;
30743;SDS011;17486;46.738;7.622;2022-11-20T10:41:32;3.08;;;1.60;;
30743;SDS011;17486;46.738;7.622;2022-11-20T10:44:15;2.90;;;1.73;;
30743;SDS011;17486;46.738;7.622;2022-11-20T10:47:01;2.33;;;1.80;;
30743;SDS011;17486;46.738;7.622;2022-11-20T10:49:28;4.25;;;2.40;;
30743;SDS011;17486;46.738;7.622;2022-11-20T10:52:09;4.95;;;1.90;;
30743;SDS011;17486;46.738;7.622;2022-11-20T10:54:47;4.32;;;1.77;;
30743;SDS011;17486;46.738;7.622;2022-11-20T10:57:17;3.10;;;1.88;;
30743;SDS011;17486;46.738;7.622;2022-11-20T11:00:01;3.67;;;1.50;;
30743;SDS011;17486;46.738;7.622;2022-11-20T11:02:51;1.52;;;1.42;;
30743;SDS011;17486;46.738;7.622;2022-11-20T11:05:20;1.55;;;1.30;;
30743;SDS011;17486;46.738;7.622;2022-11-20T11:07:54;1.75;;;1.27;;
30743;SDS011;17486;46.738;7.622;2022-11-20T11:13:00;1.75;;;1.13;;
30743;SDS011;17486;46.738;7.622;2022-11-20T11:15:28;1.98;;;1.20;;
30743;SDS011;17486;46.738;7.622;2022-11-20T11:17:55;1.98;;;1.30;;
30743;SDS011;17486;46.738;7.622;2022-11-20T11:20:22;2.00;;;1.48;;
30743;SDS011;17486;46.738;7.622;2022-11-20T11:22:51;2.88;;;1.45;;
30743;SDS011;17486;46.738;7.622;2022-11-20T11:28:03;1.58;;;1.48;;
30743;SDS011;17486;46.738;7.622;2022-11-20T11:30:40;2.67;;;1.30;;
30743;SDS011;17486;46.738;7.622;2022-11-20T11:33:12;2.53;;;1.50;;
30743;SDS011;17486;46.738;7.622;2022-11-20T11:35:46;3.13;;;1.40;;
30743;SDS011;17486;46.738;7.622;2022-11-20T11:38:16;2.67;;;1.40;;
30743;SDS011;17486;46.738;7.622;2022-11-20T11:40:47;1.65;;;1.40;;
30743;SDS011;17486;46.738;7.622;2022-11-20T11:43:55;2.78;;;1.70;;
30743;SDS011;17486;46.738;7.622;2022-11-20T11:48:55;2.03;;;1.20;;
30743;SDS011;17486;46.738;7.622;2022-11-20T11:51:23;1.67;;;1.55;;
30743;SDS011;17486;46.738;7.622;2022-11-20T11:53:59;4.00;;;1.50;;
30743;SDS011;17486;46.738;7.622;2022-11-20T11:56:28;2.72;;;1.42;;
30743;SDS011;17486;46.738;7.622;2022-11-20T11:58:56;2.10;;;1.30;;
30743;SDS011;17486;46.738;7.622;2022-11-20T12:01:41;1.63;;;1.20;;
30743;SDS011;17486;46.738;7.622;2022-11-20T12:06:39;2.53;;;1.73;;
30743;SDS011;17486;46.738;7.622;2022-11-20T12:09:13;1.40;;;1.15;;
30743;SDS011;17486;46.738;7.622;2022-11-20T12:11:45;4.13;;;1.67;;
30743;SDS011;17486;46.738;7.622;2022-11-20T12:15:00;2.03;;;1.50;;
30743;SDS011;17486;46.738;7.622;2022-11-20T12:17:11;1.42;;;1.30;;
30743;SDS011;17486;46.738;7.622;2022-11-20T12:19:38;2.20;;;1.30;;
30743;SDS011;17486;46.738;7.622;2022-11-20T12:24:55;1.77;;;1.40;;
30743;SDS011;17486;46.738;7.622;2022-11-20T12:30:27;2.72;;;1.40;;
30743;SDS011;17486;46.738;7.622;2022-11-20T12:42:01;2.58;;;1.50;;
30743;SDS011;17486;46.738;7.622;2022-11-20T12:53:26;1.98;;;1.33;;
30743;SDS011;17486;46.738;7.622;2022-11-20T12:58:52;2.55;;;1.45;;
30743;SDS011;17486;46.738;7.622;2022-11-20T13:01:35;3.92;;;3.10;;
30743;SDS011;17486;46.738;7.622;2022-11-20T13:07:03;3.40;;;1.63;;
30743;SDS011;17486;46.738;7.622;2022-11-20T13:09:32;2.17;;;1.30;;
30743;SDS011;17486;46.738;7.622;2022-11-20T13:14:37;1.30;;;1.20;;
30743;SDS011;17486;46.738;7.622;2022-11-20T13:19:39;1.52;;;1.42;;
30743;SDS011;17486;46.738;7.622;2022-11-20T13:22:05;2.85;;;1.40;;
30743;SDS011;17486;46.738;7.622;2022-11-20T13:24:30;2.92;;;1.55;;
30743;SDS011;17486;46.738;7.622;2022-11-20T13:29:38;2.72;;;1.55;;
30743;SDS011;17486;46.738;7.622;2022-11-20T13:32:18;3.28;;;1.45;;
30743;SDS011;17486;46.738;7.622;2022-11-20T13:34:56;1.83;;;1.30;;
30743;SDS011;17486;46.738;7.622;2022-11-20T13:37:31;1.30;;;1.05;;
30743;SDS011;17486;46.738;7.622;2022-11-20T13:42:33;1.20;;;1.05;;
30743;SDS011;17486;46.738;7.622;2022-11-20T13:45:32;2.42;;;1.75;;
30743;SDS011;17486;46.738;7.622;2022-11-20T13:47:58;2.03;;;1.27;;
30743;SDS011;17486;46.738;7.622;2022-11-20T13:53:48;1.67;;;1.38;;
30743;SDS011;17486;46.738;7.622;2022-11-20T13:59:02;1.33;;;1.03;;
30743;SDS011;17486;46.738;7.622;2022-11-20T14:01:29;1.83;;;1.38;;
30743;SDS011;17486;46.738;7.622;2022-11-20T14:03:59;87.80;;;5.20;;
30743;SDS011;17486;46.738;7.622;2022-11-20T14:06:32;2.08;;;1.30;;
30743;SDS011;17486;46.738;7.622;2022-11-20T14:09:10;1.63;;;1.30;;
30743;SDS011;17486;46.738;7.622;2022-11-20T14:11:45;2.00;;;1.45;;
30743;SDS011;17486;46.738;7.622;2022-11-20T14:14:17;1.30;;;1.20;;
30743;SDS011;17486;46.738;7.622;2022-11-20T14:16:50;1.52;;;1.42;;
30743;SDS011;17486;46.738;7.622;2022-11-20T14:21:42;2.50;;;1.20;;
30743;SDS011;17486;46.738;7.622;2022-11-20T14:24:09;1.13;;;1.05;;
30743;SDS011;17486;46.738;7.622;2022-11-20T14:26:36;19.40;;;17.70;;
30743;SDS011;17486;46.738;7.622;2022-11-20T14:29:11;35.40;;;29.25;;
30743;SDS011;17486;46.738;7.622;2022-11-20T14:31:38;30.80;;;27.65;;
30743;SDS011;17486;46.738;7.622;2022-11-20T14:34:04;17.65;;;15.85;;
30743;SDS011;17486;46.738;7.622;2022-11-20T14:36:29;4.18;;;3.78;;
30743;SDS011;17486;46.738;7.622;2022-11-20T14:38:54;2.75;;;2.17;;
30743;SDS011;17486;46.738;7.622;2022-11-20T14:41:21;3.03;;;2.03;;
30743;SDS011;17486;46.738;7.622;2022-11-20T14:43:50;2.30;;;2.05;;
30743;SDS011;17486;46.738;7.622;2022-11-20T14:48:55;2.90;;;2.03;;
30743;SDS011;17486;46.738;7.622;2022-11-20T14:51:30;3.58;;;2.13;;
30743;SDS011;17486;46.738;7.622;2022-11-20T14:54:14;5.00;;;2.05;;
30743;SDS011;17486;46.738;7.622;2022-11-20T14:56:53;3.95;;;1.80;;
30743;SDS011;17486;46.738;7.622;2022-11-20T14:59:30;3.42;;;2.20;;
30743;SDS011;17486;46.738;7.622;2022-11-20T15:01:58;2.42;;;1.98;;
30743;SDS011;17486;46.738;7.622;2022-11-20T15:04:24;2.45;;;1.98;;
30743;SDS011;17486;46.738;7.622;2022-11-20T15:06:50;2.13;;;1.90;;
30743;SDS011;17486;46.738;7.622;2022-11-20T15:09:17;2.13;;;1.92;;
30743;SDS011;17486;46.738;7.622;2022-11-20T15:11:51;2.50;;;1.65;;
30743;SDS011;17486;46.738;7.622;2022-11-20T15:16:51;1.75;;;1.63;;
30743;SDS011;17486;46.738;7.622;2022-11-20T15:19:18;2.50;;;1.88;;
30743;SDS011;17486;46.738;7.622;2022-11-20T15:21:46;2.72;;;2.00;;
30743;SDS011;17486;46.738;7.622;2022-11-20T15:24:11;174.82;;;100.60;;
30743;SDS011;17486;46.738;7.622;2022-11-20T15:26:36;129.15;;;78.45;;
30743;SDS011;17486;46.738;7.622;2022-11-20T15:29:09;85.82;;;49.80;;
30743;SDS011;17486;46.738;7.622;2022-11-20T15:31:36;23.70;;;15.18;;
30743;SDS011;17486;46.738;7.622;2022-11-20T15:34:02;8.80;;;4.68;;
30743;SDS011;17486;46.738;7.622;2022-11-20T15:36:29;3.03;;;1.90;;
30743;SDS011;17486;46.738;7.622;2022-11-20T15:38:55;2.15;;;1.85;;
30743;SDS011;17486;46.738;7.622;2022-11-20T15:41:20;3.50;;;1.80;;
30743;SDS011;17486;46.738;7.622;2022-11-20T15:43:45;3.25;;;1.80;;
30743;SDS011;17486;46.738;7.622;2022-11-20T15:46:13;2.67;;;1.95;;
30743;SDS011;17486;46.738;7.622;2022-11-20T15:56:24;4.93;;;4.25;;
30743;SDS011;17486;46.738;7.622;2022-11-20T15:58:50;4.63;;;3.22;;
30743;SDS011;17486;46.738;7.622;2022-11-20T16:01:17;4.93;;;3.20;;
30743;SDS011;17486;46.738;7.622;2022-11-20T16:03:44;4.28;;;3.05;;
30743;SDS011;17486;46.738;7.622;2022-11-20T16:06:09;6.03;;;3.08;;
30743;SDS011;17486;46.738;7.622;2022-11-20T16:08:35;3.30;;;2.88;;
30743;SDS011;17486;46.738;7.622;2022-11-20T16:11:00;3.08;;;2.40;;
30743;SDS011;17486;46.738;7.622;2022-11-20T16:13:26;3.45;;;2.40;;
30743;SDS011;17486;46.738;7.622;2022-11-20T16:16:21;2.67;;;2.40;;
30743;SDS011;17486;46.738;7.622;2022-11-20T16:18:53;2.63;;;2.28;;
30743;SDS011;17486;46.738;7.622;2022-11-20T16:21:19;3.90;;;2.22;;
30743;SDS011;17486;46.738;7.622;2022-11-20T16:23:45;1.80;;;1.70;;
30743;SDS011;17486;46.738;7.622;2022-11-20T16:26:17;3.20;;;2.08;;
30743;SDS011;17486;46.738;7.622;2022-11-20T16:28:43;2.80;;;1.88;;
30743;SDS011;17486;46.738;7.622;2022-11-20T16:31:12;2.30;;;2.10;;
30743;SDS011;17486;46.738;7.622;2022-11-20T16:33:40;175.32;;;113.10;;
30743;SDS011;17486;46.738;7.622;2022-11-20T16:36:07;148.77;;;92.05;;